KJAX/JAX METAR and TAF weather

Enter ICAO airport designator
Station Type Date Time Source
KJAX METAR 2023/02/05 22:56 UTC NOAA

KJAX 052256Z 04004KT 10SM FEW100 SCT230 SCT250 17/14 A3014 RMK AO2 SLP207 T01670139


Station Type Date Time Source
KJAX Decoded METAR 2023/02/05 22:56 UTC NOAA

JACKSONVILLE INTERNATIONAL, FL, United States (KJAX) 30-30N 81-42W 7M
Feb 05, 2023 - 05:56 PM EST / 2023.02.05 2256 UTC
Wind: from the NE (040 degrees) at 5 MPH (4 KT):0
Visibility: 10 mile(s):0
Sky conditions: partly cloudy
Temperature: 62.1 F (16.7 C)
Dew Point: 57.0 F (13.9 C)
Relative Humidity: 83%
Pressure (altimeter): 30.14 in. Hg (1020 hPa)
ob: KJAX 052256Z 04004KT 10SM FEW100 SCT230 SCT250 17/14 A3014 RMK AO2 SLP207 T01670139
cycle: 23

Station Type Date Time Source
KJAX TAF 2023/02/05 22:15 UTC NOAA

TAF
AMD KJAX 052212Z 0522/0618 07005KT P6SM FEW030 SCT100 BKN200
FM060000 02004KT P6SM FEW050 SCT150 BKN250
FM060300 34003KT P6SM SCT050
FM060900 VRB02KT 6SM BR SCT002 SCT070
FM061600 34007KT P6SM FEW250

Example: see airport list